Time;durP1;ratioP1;P1;durP2;ratioP2;P2;SDS_P1;SDS_P2;PMS_P1;PMS_P2;Temp;Humidity;BMP_temperature;BMP_pressure;BME280_temperature;BME280_humidity;BME280_pressure;Samples;Min_cycle;Max_cycle;Signal;HPM_P1;HPM_P2
2022/01/28 00:01:02;;;;;;;19.07;13.47;;;1.70;99.90;;;;;;5072372;28;20208;-90
2022/01/28 00:03:27;;;;;;;19.87;15.30;;;1.70;99.90;;;;;;5097284;28;20190;-90
2022/01/28 00:05:53;;;;;;;23.27;15.87;;;1.70;99.90;;;;;;5100891;28;20283;-90
2022/01/28 00:08:19;;;;;;;22.33;15.03;;;1.60;99.90;;;;;;5077825;28;20218;-90
2022/01/28 00:10:45;;;;;;;20.10;13.40;;;1.60;99.90;;;;;;5079436;28;20553;-90
2022/01/28 00:13:22;;;;;;;19.37;14.57;;;1.70;99.90;;;;;;5062258;28;20187;-89
2022/01/28 00:18:44;;;;;;;20.97;13.87;;;1.70;99.90;;;;;;5104335;28;20201;-90
2022/01/28 00:39:46;;;;;;;18.50;13.60;;;1.90;99.90;;;;;;5089549;28;20281;-90
2022/01/28 00:42:12;;;;;;;22.03;14.70;;;1.90;99.90;;;;;;5104759;28;20187;-89
2022/01/28 00:44:38;;;;;;;21.67;15.03;;;1.90;99.90;;;;;;5067899;28;20190;-89
2022/01/28 00:47:04;;;;;;;18.87;13.47;;;1.90;99.90;;;;;;5095452;28;20175;-89
2022/01/28 00:49:30;;;;;;;22.87;14.73;;;2.00;99.90;;;;;;5096802;28;20279;-90
2022/01/28 00:51:56;;;;;;;18.53;13.87;;;2.00;99.90;;;;;;5084740;28;20700;-89
2022/01/28 00:54:22;;;;;;;18.37;12.40;;;2.00;99.90;;;;;;5084155;28;20203;-89
2022/01/28 00:56:48;;;;;;;18.43;12.57;;;2.10;99.90;;;;;;5098024;28;20684;-90
2022/01/28 00:59:14;;;;;;;16.87;12.37;;;2.20;99.90;;;;;;5069355;28;20238;-89
2022/01/28 01:01:40;;;;;;;18.83;13.10;;;2.20;99.90;;;;;;5091130;28;20192;-90
2022/01/28 01:04:06;;;;;;;16.40;12.93;;;2.10;99.90;;;;;;5090755;28;20179;-91
2022/01/28 01:06:33;;;;;;;15.07;12.17;;;2.10;99.90;;;;;;5072472;28;20222;-89
2022/01/28 01:08:59;;;;;;;20.10;14.43;;;2.20;99.90;;;;;;5097210;28;20219;-90
2022/01/28 01:11:25;;;;;;;17.60;13.87;;;2.10;99.90;;;;;;5068240;28;20211;-90
2022/01/28 01:13:52;;;;;;;22.27;14.13;;;2.10;99.90;;;;;;5102117;28;20545;-89
2022/01/28 01:16:26;;;;;;;19.63;14.57;;;2.10;99.90;;;;;;5075322;28;20213;-90
2022/01/28 01:19:04;;;;;;;20.20;14.00;;;2.10;99.90;;;;;;5081806;28;20288;-90
2022/01/28 01:21:37;;;;;;;18.67;13.90;;;2.10;99.90;;;;;;5096949;28;20191;-90
2022/01/28 01:24:03;;;;;;;23.23;14.80;;;2.10;99.90;;;;;;5089153;28;20226;-91
2022/01/28 01:26:32;;;;;;;20.87;13.83;;;2.10;99.90;;;;;;5087319;28;20209;-90
2022/01/28 01:28:58;;;;;;;19.00;13.47;;;2.20;99.90;;;;;;5083565;28;20222;-89
2022/01/28 01:31:24;;;;;;;20.93;13.53;;;2.10;99.90;;;;;;5088017;28;20192;-90
2022/01/28 01:34:00;;;;;;;20.03;14.60;;;2.20;99.90;;;;;;5095072;28;20216;-89
2022/01/28 01:36:26;;;;;;;21.47;14.23;;;2.20;99.90;;;;;;5101580;28;20224;-90
2022/01/28 01:38:53;;;;;;;18.63;14.43;;;2.30;99.90;;;;;;5088315;28;20215;-89
2022/01/28 01:41:35;;;;;;;22.43;14.37;;;2.20;99.90;;;;;;5067315;28;20235;-90
2022/01/28 01:44:08;;;;;;;18.90;13.60;;;2.20;99.90;;;;;;5079296;28;20195;-90
2022/01/28 01:52:02;;;;;;;18.83;13.47;;;2.30;99.90;;;;;;5087476;28;20217;-89
2022/01/28 01:54:29;;;;;;;19.67;14.63;;;2.30;99.90;;;;;;5092002;28;20218;-90
2022/01/28 01:56:55;;;;;;;19.07;14.53;;;2.30;99.90;;;;;;5067419;28;20203;-89
2022/01/28 01:59:21;;;;;;;20.43;14.87;;;2.30;99.90;;;;;;5088296;28;20207;-89
2022/01/28 02:01:47;;;;;;;19.37;14.67;;;2.20;99.90;;;;;;5073000;28;20596;-89
2022/01/28 02:04:12;;;;;;;16.47;12.37;;;2.20;99.90;;;;;;5089001;28;20290;-89
2022/01/28 02:06:40;;;;;;;20.37;14.27;;;2.20;99.90;;;;;;5099869;28;20269;-89
2022/01/28 02:09:07;;;;;;;17.93;13.17;;;2.30;99.90;;;;;;5087225;28;20207;-90
2022/01/28 02:11:33;;;;;;;20.40;13.50;;;2.40;99.90;;;;;;5097210;28;20259;-89
2022/01/28 02:13:59;;;;;;;19.40;14.90;;;2.30;99.90;;;;;;5074453;28;20203;-89
2022/01/28 02:16:25;;;;;;;18.43;13.57;;;2.30;99.90;;;;;;5097993;28;20664;-89
2022/01/28 02:18:50;;;;;;;18.77;14.50;;;2.30;99.90;;;;;;5077461;28;20221;-90
2022/01/28 02:21:18;;;;;;;20.87;14.33;;;2.30;99.90;;;;;;5095976;28;20183;-90
2022/01/28 02:23:48;;;;;;;21.20;15.43;;;2.20;99.90;;;;;;5097587;28;20454;-90
2022/01/28 02:26:16;;;;;;;21.37;14.40;;;2.30;99.90;;;;;;5090328;28;20189;-89
2022/01/28 02:28:46;;;;;;;18.67;13.10;;;2.30;99.90;;;;;;5087050;28;20680;-89
2022/01/28 02:31:12;;;;;;;18.83;13.57;;;2.30;99.90;;;;;;5082914;28;20652;-89
2022/01/28 02:33:37;;;;;;;19.33;13.37;;;2.50;99.90;;;;;;5087369;28;20202;-88
2022/01/28 02:36:06;;;;;;;18.10;12.87;;;2.50;99.90;;;;;;5070764;28;20207;-89
2022/01/28 02:38:33;;;;;;;21.90;14.23;;;2.60;99.90;;;;;;5072972;28;20203;-89
2022/01/28 02:41:01;;;;;;;19.73;12.30;;;2.60;99.90;;;;;;5051770;28;20226;-90
2022/01/28 02:46:35;;;;;;;18.10;13.87;;;2.70;99.90;;;;;;5095838;28;20191;-90
2022/01/28 02:49:02;;;;;;;17.57;13.03;;;2.60;99.90;;;;;;5088419;28;20287;-89
2022/01/28 02:51:28;;;;;;;18.67;13.13;;;2.60;99.90;;;;;;5099278;28;20262;-90
2022/01/28 02:53:57;;;;;;;20.50;14.20;;;2.50;99.90;;;;;;5099219;28;20218;-90
2022/01/28 02:58:56;;;;;;;20.57;14.50;;;2.40;99.90;;;;;;5082220;28;20692;-90
2022/01/28 03:01:21;;;;;;;17.90;13.80;;;2.40;99.90;;;;;;5082275;28;20191;-89
2022/01/28 03:03:50;;;;;;;17.10;12.83;;;2.40;99.90;;;;;;5055846;28;20202;-89
2022/01/28 03:06:17;;;;;;;19.87;13.43;;;2.60;99.90;;;;;;5078861;28;20187;-89
2022/01/28 03:08:51;;;;;;;22.87;14.27;;;2.70;99.90;;;;;;5082357;28;20214;-89
2022/01/28 03:16:38;;;;;;;21.07;13.90;;;2.70;99.90;;;;;;5094444;28;20253;-90
2022/01/28 03:19:17;;;;;;;20.23;14.57;;;2.70;99.90;;;;;;5089925;28;20214;-90
2022/01/28 03:21:53;;;;;;;21.77;15.00;;;2.60;99.90;;;;;;5075549;28;20250;-89
2022/01/28 03:24:18;;;;;;;19.07;13.37;;;2.50;99.90;;;;;;5076034;28;20191;-90
2022/01/28 03:26:45;;;;;;;20.87;14.47;;;2.60;99.90;;;;;;5060429;28;20699;-89
2022/01/28 03:29:11;;;;;;;21.80;14.93;;;2.40;99.90;;;;;;5074081;28;20804;-89
2022/01/28 03:31:38;;;;;;;22.60;14.73;;;2.50;99.90;;;;;;5093980;28;20218;-90
2022/01/28 03:34:04;;;;;;;21.03;14.57;;;2.40;99.90;;;;;;5099033;28;20685;-90
2022/01/28 03:36:30;;;;;;;22.83;14.23;;;2.50;99.90;;;;;;5100934;28;20191;-89
2022/01/28 03:38:56;;;;;;;19.83;12.20;;;2.50;99.90;;;;;;5081401;28;20222;-90
2022/01/28 03:41:24;;;;;;;21.53;14.33;;;2.50;99.90;;;;;;5047484;28;20217;-89
2022/01/28 03:43:51;;;;;;;22.13;14.40;;;2.50;99.90;;;;;;5080190;28;20657;-90
2022/01/28 03:46:17;;;;;;;19.63;13.73;;;2.60;99.90;;;;;;5090415;28;20182;-89
2022/01/28 03:48:43;;;;;;;21.67;14.30;;;2.50;99.90;;;;;;5099074;28;20209;-89
2022/01/28 03:51:09;;;;;;;22.07;13.70;;;2.50;99.90;;;;;;5080090;28;20580;-90
2022/01/28 03:53:34;;;;;;;21.13;14.17;;;2.60;99.90;;;;;;5063120;28;20286;-90
2022/01/28 03:56:00;;;;;;;21.60;14.30;;;2.60;99.90;;;;;;5095358;28;20210;-89
2022/01/28 03:58:27;;;;;;;22.20;14.23;;;2.60;99.90;;;;;;5069484;28;20223;-89
2022/01/28 04:00:55;;;;;;;24.10;14.40;;;2.60;99.90;;;;;;5078899;28;20275;-90
2022/01/28 04:13:55;;;;;;;28.27;15.23;;;2.60;99.90;;;;;;5076777;28;20195;-89
2022/01/28 04:19:07;;;;;;;23.77;14.37;;;2.60;99.90;;;;;;5097229;28;20249;-90
2022/01/28 04:21:32;;;;;;;24.60;14.97;;;2.60;99.90;;;;;;5099162;28;20175;-89
2022/01/28 04:23:58;;;;;;;21.63;14.20;;;2.50;99.90;;;;;;5056249;28;20198;-89
2022/01/28 04:26:24;;;;;;;21.43;14.33;;;2.50;99.90;;;;;;5095457;28;20207;-90
2022/01/28 04:28:49;;;;;;;24.00;15.20;;;2.50;99.90;;;;;;5098396;28;20229;-90
2022/01/28 04:31:15;;;;;;;21.73;14.90;;;2.60;99.90;;;;;;5078236;28;20195;-89
2022/01/28 04:33:41;;;;;;;22.57;14.53;;;2.50;99.90;;;;;;5087051;28;20231;-89
2022/01/28 04:36:09;;;;;;;23.83;14.50;;;2.50;99.90;;;;;;5105740;28;20199;-90
2022/01/28 04:38:59;;;;;;;22.97;14.83;;;2.50;99.90;;;;;;5100458;28;20256;-89
2022/01/28 04:44:20;;;;;;;23.40;15.43;;;2.50;99.90;;;;;;5076306;28;20186;-90
2022/01/28 04:46:54;;;;;;;22.27;13.73;;;2.30;99.90;;;;;;5100880;28;20212;-90
2022/01/28 04:49:30;;;;;;;25.67;14.40;;;2.30;99.90;;;;;;5090683;28;20202;-90
2022/01/28 05:00:23;;;;;;;20.07;14.37;;;2.40;99.90;;;;;;5091280;28;20216;-90
2022/01/28 05:24:04;;;;;;;22.60;14.67;;;2.30;99.90;;;;;;5077145;28;20355;-89
2022/01/28 05:28:42;;;;;;;24.50;16.00;;;2.30;99.90;;;;;;5095700;28;20191;-89
2022/01/28 05:31:08;;;;;;;23.50;15.73;;;2.20;99.90;;;;;;5084683;28;20190;-89
2022/01/28 05:33:34;;;;;;;21.60;13.57;;;2.30;99.90;;;;;;5090960;28;20187;-90
2022/01/28 05:35:59;;;;;;;25.33;16.07;;;2.40;99.90;;;;;;5070872;28;20194;-89
2022/01/28 05:38:25;;;;;;;22.30;14.57;;;2.30;99.90;;;;;;5081003;28;20682;-89
2022/01/28 05:40:51;;;;;;;24.87;15.27;;;2.30;99.90;;;;;;5079543;28;20195;-89
2022/01/28 05:43:16;;;;;;;24.00;15.93;;;2.30;99.90;;;;;;5097048;28;20236;-89
2022/01/28 05:45:42;;;;;;;24.60;15.77;;;2.20;99.90;;;;;;5049986;28;20187;-90
2022/01/28 05:48:08;;;;;;;24.20;15.23;;;2.30;99.90;;;;;;5054354;28;20633;-89
2022/01/28 05:50:34;;;;;;;26.03;16.23;;;2.20;99.90;;;;;;5089804;28;20179;-89
2022/01/28 05:53:03;;;;;;;23.60;15.50;;;2.10;99.90;;;;;;5063425;28;20286;-90
2022/01/28 05:55:29;;;;;;;24.60;15.90;;;2.10;99.90;;;;;;5091716;28;20188;-90
2022/01/28 05:57:55;;;;;;;25.03;15.60;;;2.10;99.90;;;;;;5097900;28;20219;-90
2022/01/28 06:00:21;;;;;;;25.50;15.67;;;2.10;99.90;;;;;;5090958;28;20676;-90
2022/01/28 06:02:46;;;;;;;25.57;16.97;;;2.20;99.90;;;;;;5096858;28;20247;-90
2022/01/28 06:05:12;;;;;;;26.70;16.07;;;2.10;99.90;;;;;;5070841;28;20179;-90
2022/01/28 06:07:41;;;;;;;26.37;16.63;;;2.00;99.90;;;;;;5066784;28;20213;-90
2022/01/28 06:10:12;;;;;;;23.60;16.57;;;2.00;99.90;;;;;;5097772;28;20656;-90
2022/01/28 06:12:46;;;;;;;19.97;14.73;;;2.10;99.90;;;;;;5063401;28;20245;-90
2022/01/28 06:15:13;;;;;;;24.87;15.97;;;2.00;99.90;;;;;;5063729;28;20753;-90
2022/01/28 06:17:39;;;;;;;23.50;16.13;;;2.10;99.90;;;;;;5087918;28;20256;-90
2022/01/28 06:20:07;;;;;;;26.80;17.93;;;2.10;99.90;;;;;;5065787;28;20204;-90
2022/01/28 06:22:38;;;;;;;35.03;17.50;;;2.00;99.90;;;;;;5082646;28;20209;-90
2022/01/28 06:25:04;;;;;;;25.77;17.20;;;2.00;99.90;;;;;;5082073;28;20286;-90
2022/01/28 06:27:30;;;;;;;25.57;16.87;;;2.00;99.90;;;;;;5104375;28;20602;-90
2022/01/28 06:29:56;;;;;;;22.90;16.30;;;1.90;99.90;;;;;;5096690;28;20203;-89
2022/01/28 06:32:22;;;;;;;23.60;16.10;;;2.00;99.90;;;;;;5087255;28;20227;-89
2022/01/28 06:34:47;;;;;;;23.80;16.53;;;1.90;99.90;;;;;;5069172;28;20207;-89
2022/01/28 06:37:13;;;;;;;30.00;18.13;;;1.80;99.90;;;;;;5099144;28;20195;-89
2022/01/28 06:39:39;;;;;;;24.07;15.77;;;1.80;99.90;;;;;;5096277;28;21334;-90
2022/01/28 06:42:06;;;;;;;30.30;18.10;;;1.80;99.90;;;;;;5092365;28;20187;-89
2022/01/28 06:44:31;;;;;;;27.03;16.73;;;1.80;99.90;;;;;;5067297;28;20286;-89
2022/01/28 06:46:58;;;;;;;24.60;16.17;;;1.80;99.90;;;;;;5090038;28;20223;-90
2022/01/28 06:49:23;;;;;;;26.90;16.03;;;1.90;99.90;;;;;;5084663;28;20207;-90
2022/01/28 06:51:49;;;;;;;22.23;16.20;;;1.80;99.90;;;;;;5082967;28;20195;-89
2022/01/28 06:54:15;;;;;;;23.77;15.63;;;1.80;99.90;;;;;;5096051;28;20220;-89
2022/01/28 06:56:40;;;;;;;24.27;15.90;;;1.80;99.90;;;;;;5090227;28;20245;-90
2022/01/28 06:59:06;;;;;;;22.57;15.07;;;1.80;99.90;;;;;;5066664;28;20270;-90
2022/01/28 07:01:32;;;;;;;24.17;15.77;;;1.80;99.90;;;;;;5081297;28;20830;-89
2022/01/28 07:03:58;;;;;;;23.73;16.30;;;1.80;99.90;;;;;;5093932;28;20179;-90
2022/01/28 07:06:24;;;;;;;23.50;16.53;;;1.80;99.90;;;;;;5102811;28;20191;-89
2022/01/28 07:08:51;;;;;;;24.70;16.40;;;1.90;99.90;;;;;;5100402;28;20252;-90
2022/01/28 07:11:17;;;;;;;24.70;16.20;;;1.90;99.90;;;;;;5074814;28;20246;-89
2022/01/28 07:13:43;;;;;;;24.43;15.87;;;1.90;99.90;;;;;;5074237;28;20578;-90
2022/01/28 07:16:09;;;;;;;26.03;16.80;;;1.90;99.90;;;;;;5066808;28;20202;-90
2022/01/28 07:18:35;;;;;;;25.13;17.03;;;1.90;99.90;;;;;;5078851;28;20211;-90
2022/01/28 07:21:01;;;;;;;29.63;16.53;;;1.90;99.90;;;;;;5071080;28;20576;-90
2022/01/28 07:23:26;;;;;;;27.10;17.97;;;1.90;99.90;;;;;;5084285;28;20187;-89
2022/01/28 07:25:52;;;;;;;24.13;16.03;;;1.90;99.90;;;;;;5051516;28;20242;-90
2022/01/28 07:28:18;;;;;;;26.00;16.00;;;1.80;99.90;;;;;;5069030;28;20305;-89
2022/01/28 07:30:44;;;;;;;22.90;17.43;;;1.90;99.90;;;;;;5050983;28;20245;-90
2022/01/28 07:33:10;;;;;;;26.80;16.17;;;1.90;99.90;;;;;;5079726;28;20192;-90
2022/01/28 07:35:36;;;;;;;22.80;17.07;;;1.90;99.90;;;;;;5088157;28;20214;-89
2022/01/28 07:38:03;;;;;;;26.40;16.20;;;1.90;99.90;;;;;;5086456;28;20207;-89
2022/01/28 07:40:29;;;;;;;22.53;16.33;;;1.90;99.90;;;;;;5085504;28;20211;-89
2022/01/28 07:42:54;;;;;;;22.87;15.80;;;1.90;99.90;;;;;;5092634;28;20190;-89
2022/01/28 07:45:20;;;;;;;21.57;15.20;;;2.00;99.90;;;;;;5056580;28;20218;-90
2022/01/28 07:47:46;;;;;;;19.97;14.67;;;2.00;99.90;;;;;;5091187;28;20214;-89
2022/01/28 07:50:13;;;;;;;19.80;14.17;;;2.00;99.90;;;;;;5061851;28;20178;-89
2022/01/28 07:52:39;;;;;;;21.80;15.50;;;2.10;99.90;;;;;;5093422;28;20244;-89
2022/01/28 07:55:07;;;;;;;20.23;15.07;;;2.10;99.90;;;;;;5074938;28;20191;-89
2022/01/28 07:57:34;;;;;;;22.70;16.07;;;2.10;99.90;;;;;;5090512;28;20207;-90
2022/01/28 08:00:00;;;;;;;21.33;14.60;;;2.20;99.90;;;;;;5100697;28;20199;-89
2022/01/28 08:02:27;;;;;;;22.20;14.50;;;2.20;99.90;;;;;;5073463;28;20194;-89
2022/01/28 08:04:53;;;;;;;20.30;14.70;;;2.30;99.90;;;;;;5064618;28;20194;-89
2022/01/28 08:07:21;;;;;;;22.50;14.30;;;2.40;99.90;;;;;;5089766;28;20226;-90
2022/01/28 08:09:47;;;;;;;18.47;13.63;;;2.30;99.90;;;;;;5083004;28;20291;-89
2022/01/28 08:12:12;;;;;;;19.23;14.30;;;2.40;99.90;;;;;;5082937;28;20214;-89
2022/01/28 08:14:38;;;;;;;21.70;14.20;;;2.40;99.90;;;;;;5061308;28;20737;-90
2022/01/28 08:17:04;;;;;;;20.27;13.60;;;2.50;99.90;;;;;;5085675;28;20218;-90
2022/01/28 08:19:30;;;;;;;21.40;14.60;;;2.50;99.90;;;;;;5065976;28;20298;-89
2022/01/28 08:21:55;;;;;;;20.03;14.73;;;2.40;99.90;;;;;;5088697;28;20236;-89
2022/01/28 08:24:21;;;;;;;22.60;15.07;;;2.40;99.90;;;;;;5050328;28;20191;-89
2022/01/28 08:26:47;;;;;;;22.37;14.13;;;2.40;99.90;;;;;;5085322;28;20194;-89
2022/01/28 08:29:13;;;;;;;24.13;15.87;;;2.30;99.90;;;;;;5091927;28;20212;-89
2022/01/28 08:31:39;;;;;;;22.37;14.67;;;2.40;99.90;;;;;;5075130;28;20202;-90
2022/01/28 08:34:05;;;;;;;21.10;14.63;;;2.40;99.90;;;;;;5069508;28;20220;-90
2022/01/28 08:36:31;;;;;;;22.37;15.00;;;2.40;99.90;;;;;;5091889;28;20203;-89
2022/01/28 08:38:57;;;;;;;22.60;15.87;;;2.40;99.90;;;;;;5082365;28;20207;-89
2022/01/28 08:41:23;;;;;;;23.23;13.77;;;2.50;99.90;;;;;;5093220;28;20213;-89
2022/01/28 08:43:49;;;;;;;20.47;13.77;;;2.50;99.90;;;;;;5079837;28;20689;-89
2022/01/28 08:46:16;;;;;;;20.77;13.60;;;2.70;99.90;;;;;;5072138;28;20251;-89
2022/01/28 08:48:41;;;;;;;20.17;14.70;;;2.70;99.90;;;;;;5095131;28;20216;-90
2022/01/28 08:51:07;;;;;;;18.67;14.07;;;2.80;99.90;;;;;;5090652;28;20187;-90
2022/01/28 08:53:33;;;;;;;20.67;14.43;;;2.80;99.90;;;;;;5089550;28;20175;-90
2022/01/28 08:55:59;;;;;;;23.90;14.13;;;2.80;99.90;;;;;;5076527;28;20179;-90
2022/01/28 08:58:25;;;;;;;22.00;13.27;;;2.80;99.90;;;;;;5073444;28;20279;-90
2022/01/28 09:00:52;;;;;;;20.63;14.40;;;2.80;99.90;;;;;;5066675;28;20202;-89
2022/01/28 09:03:19;;;;;;;23.87;14.93;;;2.90;99.90;;;;;;5083184;28;20232;-89
2022/01/28 09:05:46;;;;;;;22.03;15.30;;;2.90;99.90;;;;;;5089946;28;20673;-89
2022/01/28 09:08:11;;;;;;;21.70;15.20;;;2.80;99.90;;;;;;5068108;28;20217;-89
2022/01/28 09:10:42;;;;;;;21.40;14.37;;;2.80;99.90;;;;;;5085762;28;20258;-89
2022/01/28 09:15:39;;;;;;;22.83;14.67;;;3.10;99.90;;;;;;5089627;28;20619;-89
2022/01/28 09:18:09;;;;;;;20.80;14.83;;;3.00;99.90;;;;;;5093393;28;20245;-89
2022/01/28 09:20:35;;;;;;;19.33;14.57;;;2.90;99.90;;;;;;5083549;28;20275;-90
2022/01/28 09:23:03;;;;;;;23.20;15.47;;;2.90;99.90;;;;;;5071210;28;20188;-90
2022/01/28 09:25:29;;;;;;;21.83;13.77;;;3.00;99.90;;;;;;5073167;28;20194;-89
2022/01/28 09:27:55;;;;;;;21.50;14.37;;;3.10;99.90;;;;;;5086735;28;20261;-90
2022/01/28 09:30:21;;;;;;;20.80;14.33;;;3.10;99.90;;;;;;5091131;28;20535;-90
2022/01/28 09:32:47;;;;;;;18.83;13.93;;;3.10;99.90;;;;;;5088056;28;20200;-89
2022/01/28 09:35:13;;;;;;;20.03;13.40;;;3.20;99.90;;;;;;5094757;28;20665;-90
2022/01/28 09:37:39;;;;;;;19.87;14.47;;;3.10;99.90;;;;;;5089588;28;20215;-90
2022/01/28 09:40:06;;;;;;;20.13;13.53;;;3.10;99.90;;;;;;5084449;28;20451;-89
2022/01/28 09:42:37;;;;;;;19.43;13.63;;;3.20;99.90;;;;;;5084063;28;20531;-89
2022/01/28 09:45:04;;;;;;;20.13;14.07;;;3.30;99.90;;;;;;5086589;28;20175;-90
2022/01/28 09:47:30;;;;;;;17.50;12.90;;;3.30;99.90;;;;;;5074032;28;20217;-89
2022/01/28 09:49:57;;;;;;;20.53;13.93;;;3.30;99.90;;;;;;5072603;28;20275;-90
2022/01/28 09:52:22;;;;;;;17.03;12.90;;;3.50;99.90;;;;;;5097559;28;20198;-89
2022/01/28 09:54:48;;;;;;;18.03;13.23;;;3.60;99.90;;;;;;5077450;28;20195;-89
2022/01/28 09:57:18;;;;;;;17.83;13.07;;;3.60;99.90;;;;;;5090128;28;20218;-90
2022/01/28 09:59:45;;;;;;;17.00;12.37;;;3.60;99.90;;;;;;5063442;28;20299;-89
2022/01/28 10:02:10;;;;;;;20.17;13.27;;;3.60;99.90;;;;;;5094478;28;20187;-89
2022/01/28 10:04:36;;;;;;;20.17;14.33;;;3.50;99.90;;;;;;5094220;28;20197;-89
2022/01/28 10:07:10;;;;;;;18.27;12.70;;;3.50;99.90;;;;;;5049109;28;20191;-90
2022/01/28 10:09:37;;;;;;;16.30;12.87;;;3.70;99.90;;;;;;5093737;28;20199;-89
2022/01/28 10:12:26;;;;;;;20.03;12.90;;;3.60;99.90;;;;;;5107242;28;20240;-90
2022/01/28 10:15:06;;;;;;;18.23;12.03;;;3.70;99.90;;;;;;5081467;28;20199;-90
2022/01/28 10:17:58;;;;;;;18.87;13.33;;;3.80;99.90;;;;;;5087512;28;20215;-89
2022/01/28 10:20:25;;;;;;;21.00;12.77;;;3.70;99.90;;;;;;5090694;28;20217;-90
2022/01/28 10:22:59;;;;;;;17.50;13.13;;;3.70;99.90;;;;;;5080973;28;20233;-90
2022/01/28 10:25:34;;;;;;;15.67;12.57;;;3.90;99.90;;;;;;5072507;28;20229;-89
2022/01/28 10:28:04;;;;;;;18.97;13.40;;;4.00;99.90;;;;;;5078816;28;20299;-90
2022/01/28 10:30:34;;;;;;;17.60;12.60;;;4.10;99.90;;;;;;5043015;28;20194;-90
2022/01/28 10:33:17;;;;;;;18.00;12.27;;;4.10;99.90;;;;;;5066663;28;20199;-89
2022/01/28 10:35:52;;;;;;;17.73;13.03;;;4.10;99.90;;;;;;5083765;28;20225;-90
2022/01/28 10:38:38;;;;;;;17.07;13.43;;;4.00;99.90;;;;;;5076318;28;20211;-91
2022/01/28 10:41:16;;;;;;;19.27;13.23;;;4.00;99.90;;;;;;5085020;28;20470;-89
2022/01/28 10:43:51;;;;;;;17.33;12.73;;;4.20;99.90;;;;;;5085301;28;20565;-90
2022/01/28 10:46:24;;;;;;;16.73;13.30;;;4.30;99.90;;;;;;5084946;28;20212;-90
2022/01/28 10:49:02;;;;;;;17.97;13.53;;;4.30;99.90;;;;;;5083232;28;20206;-90
2022/01/28 10:51:48;;;;;;;18.83;12.57;;;4.40;99.90;;;;;;5074597;28;20203;-90
2022/01/28 10:54:20;;;;;;;16.40;13.57;;;4.40;99.90;;;;;;5076596;28;20638;-90
2022/01/28 10:56:57;;;;;;;15.23;12.03;;;4.50;99.90;;;;;;5088406;28;20315;-90
2022/01/28 10:59:38;;;;;;;20.20;13.70;;;4.40;99.90;;;;;;5055349;28;20230;-90
2022/01/28 11:02:05;;;;;;;18.10;13.27;;;4.40;99.90;;;;;;5060501;28;20204;-90
2022/01/28 11:04:33;;;;;;;20.07;14.83;;;4.50;99.90;;;;;;5072942;28;20206;-90
2022/01/28 11:07:00;;;;;;;20.33;14.93;;;4.70;99.90;;;;;;5070389;28;20188;-90
2022/01/28 11:09:26;;;;;;;19.70;14.30;;;4.80;99.90;;;;;;5085988;28;20199;-90
2022/01/28 11:11:53;;;;;;;21.03;13.83;;;4.80;99.90;;;;;;5093448;28;20214;-90
2022/01/28 11:14:19;;;;;;;17.67;13.77;;;4.90;99.90;;;;;;5083085;28;20286;-90
2022/01/28 11:16:47;;;;;;;20.77;15.13;;;4.80;99.90;;;;;;5079145;28;20194;-90
2022/01/28 11:19:17;;;;;;;20.50;13.57;;;4.80;99.90;;;;;;5093037;28;20198;-90
2022/01/28 11:21:53;;;;;;;22.73;14.20;;;4.70;99.90;;;;;;5092293;28;20175;-90
2022/01/28 11:24:57;;;;;;;19.77;12.97;;;4.80;99.90;;;;;;5090037;28;20186;-92
2022/01/28 11:27:30;;;;;;;17.77;13.23;;;5.10;99.90;;;;;;5072203;28;20255;-91
2022/01/28 11:30:28;;;;;;;18.60;13.60;;;5.10;99.90;;;;;;5094995;28;20181;-91
2022/01/28 11:32:59;;;;;;;18.73;12.53;;;5.10;99.90;;;;;;5061088;28;20550;-92
2022/01/28 11:35:27;;;;;;;18.00;12.50;;;5.10;99.90;;;;;;5088773;28;20191;-92
2022/01/28 11:37:56;;;;;;;18.33;11.83;;;5.20;99.90;;;;;;5083629;28;20202;-94
2022/01/28 11:40:23;;;;;;;18.50;12.90;;;5.10;99.90;;;;;;5077663;28;20351;-93
2022/01/28 11:42:49;;;;;;;17.10;12.23;;;5.30;99.90;;;;;;5093558;28;20436;-92
2022/01/28 11:45:14;;;;;;;17.20;13.60;;;5.50;99.90;;;;;;5061173;28;20213;-93
2022/01/28 11:47:51;;;;;;;15.23;11.53;;;5.90;99.90;;;;;;5064414;28;20276;-91
2022/01/28 11:50:19;;;;;;;16.23;11.50;;;6.10;99.90;;;;;;5099841;28;20189;-93
2022/01/28 11:52:51;;;;;;;17.90;12.27;;;6.40;99.90;;;;;;5099795;28;20318;-91
2022/01/28 11:55:26;;;;;;;16.23;11.50;;;6.60;99.90;;;;;;5085669;28;20180;-93
2022/01/28 11:58:12;;;;;;;17.53;11.37;;;6.80;99.60;;;;;;5103746;28;20214;-92
2022/01/28 12:00:40;;;;;;;17.43;11.60;;;6.90;98.60;;;;;;5082852;28;20198;-92
2022/01/28 12:03:32;;;;;;;15.37;12.20;;;7.20;95.80;;;;;;5088400;28;20224;-92
2022/01/28 12:06:08;;;;;;;18.53;12.73;;;7.30;96.80;;;;;;5055441;28;20274;-92
2022/01/28 12:08:38;;;;;;;16.30;11.07;;;7.40;96.70;;;;;;5076753;28;20222;-92
2022/01/28 12:11:07;;;;;;;17.40;11.67;;;7.70;94.40;;;;;;5082755;28;20206;-92
2022/01/28 12:14:05;;;;;;;16.60;11.17;;;7.60;94.10;;;;;;5065113;28;20182;-92
2022/01/28 12:16:34;;;;;;;14.40;11.00;;;7.50;94.10;;;;;;5094073;28;20237;-91
2022/01/28 12:19:02;;;;;;;17.53;12.37;;;7.50;93.90;;;;;;5085157;28;20210;-91
2022/01/28 12:21:37;;;;;;;13.60;10.17;;;7.40;94.80;;;;;;5065420;28;20294;-92
2022/01/28 12:24:18;;;;;;;15.63;11.43;;;7.30;96.50;;;;;;5079131;28;20623;-92
2022/01/28 12:27:05;;;;;;;16.27;11.70;;;6.90;97.90;;;;;;5070515;28;20239;-92
2022/01/28 12:29:52;;;;;;;17.07;11.47;;;7.30;95.70;;;;;;5092132;28;20191;-91
2022/01/28 12:32:25;;;;;;;14.40;10.67;;;7.30;95.10;;;;;;5064842;28;20190;-91
2022/01/28 12:34:51;;;;;;;13.10;10.33;;;7.60;93.30;;;;;;5067557;28;20195;-92
2022/01/28 12:37:22;;;;;;;12.83;9.90;;;7.70;92.10;;;;;;5073447;28;20202;-92
2022/01/28 12:40:02;;;;;;;17.17;10.63;;;7.70;90.20;;;;;;5065726;28;20357;-92
2022/01/28 12:42:32;;;;;;;15.87;11.17;;;7.80;89.40;;;;;;5090290;28;20190;-92
2022/01/28 12:45:00;;;;;;;13.80;9.97;;;7.90;90.90;;;;;;5071188;28;20180;-91
2022/01/28 12:47:32;;;;;;;13.93;10.77;;;8.10;88.70;;;;;;5077418;28;20720;-92
2022/01/28 12:50:03;;;;;;;14.87;9.50;;;7.90;90.00;;;;;;5097340;28;20177;-91
2022/01/28 12:52:34;;;;;;;13.70;9.77;;;8.00;88.20;;;;;;5088894;28;20210;-92
2022/01/28 12:54:59;;;;;;;13.97;11.90;;;7.70;86.30;;;;;;5087322;28;20194;-92
2022/01/28 12:57:25;;;;;;;11.63;8.07;;;7.60;86.70;;;;;;5085066;28;20230;-92
2022/01/28 12:59:51;;;;;;;14.30;8.73;;;7.50;85.80;;;;;;5045367;28;20667;-92
2022/01/28 13:02:18;;;;;;;13.10;9.87;;;7.40;86.90;;;;;;5097445;28;20179;-91
2022/01/28 13:10:00;;;;;;;11.37;8.70;;;7.10;88.10;;;;;;5094996;28;20248;-91
2022/01/28 13:12:31;;;;;;;15.83;9.73;;;7.10;89.00;;;;;;5079027;28;20665;-91
2022/01/28 13:15:11;;;;;;;13.80;9.87;;;7.20;87.70;;;;;;5059195;28;20258;-91
2022/01/28 13:17:37;;;;;;;13.83;10.20;;;7.00;88.80;;;;;;5100469;28;20250;-92
2022/01/28 13:20:10;;;;;;;13.67;9.23;;;6.90;89.70;;;;;;5099767;28;20257;-92
2022/01/28 13:22:37;;;;;;;12.93;9.57;;;6.90;90.60;;;;;;5067462;28;20193;-92
2022/01/28 13:25:19;;;;;;;16.37;10.40;;;6.80;90.30;;;;;;5101142;28;20171;-92
2022/01/28 13:27:48;;;;;;;13.83;9.83;;;6.90;90.40;;;;;;5111652;28;20186;-92
2022/01/28 13:30:16;;;;;;;12.20;9.40;;;6.80;91.20;;;;;;5103178;28;20740;-91
2022/01/28 13:32:45;;;;;;;12.57;8.97;;;6.80;91.60;;;;;;5101265;28;20202;-92
2022/01/28 13:35:20;;;;;;;12.37;9.47;;;6.50;91.70;;;;;;5099282;28;20595;-91
2022/01/28 13:37:59;;;;;;;14.37;9.60;;;6.70;91.00;;;;;;5086892;28;20887;-91
2022/01/28 13:40:28;;;;;;;14.43;8.93;;;6.90;89.60;;;;;;5083044;28;20297;-91
2022/01/28 13:43:13;;;;;;;14.07;9.93;;;6.90;87.30;;;;;;5083839;28;20187;-91
2022/01/28 13:45:53;;;;;;;12.90;10.73;;;7.40;87.10;;;;;;5076303;28;20169;-91
2022/01/28 13:48:32;;;;;;;11.77;8.20;;;7.70;85.00;;;;;;5093333;28;20205;-91
2022/01/28 13:51:12;;;;;;;12.60;9.27;;;7.70;81.80;;;;;;5086546;28;20178;-90
2022/01/28 13:56:36;;;;;;;12.37;9.17;;;8.10;83.90;;;;;;5072685;28;20179;-91
2022/01/28 13:59:08;;;;;;;14.80;10.40;;;8.20;80.40;;;;;;5098071;28;20286;-91
2022/01/28 14:01:35;;;;;;;11.80;9.03;;;8.00;81.50;;;;;;5101879;28;20167;-91
2022/01/28 14:04:03;;;;;;;14.77;8.90;;;7.90;82.80;;;;;;5088539;28;20763;-90
2022/01/28 14:06:34;;;;;;;12.43;9.10;;;7.90;82.20;;;;;;5066811;28;20236;-91
2022/01/28 14:09:06;;;;;;;13.40;9.00;;;7.60;82.10;;;;;;5096811;28;20217;-92
2022/01/28 14:11:41;;;;;;;13.03;9.03;;;7.50;84.10;;;;;;5099896;28;20175;-92
2022/01/28 14:14:08;;;;;;;13.13;11.73;;;7.40;84.90;;;;;;5090535;28;20186;-92
2022/01/28 14:16:34;;;;;;;17.17;14.70;;;7.20;84.70;;;;;;5081144;28;20179;-91
2022/01/28 14:19:00;;;;;;;12.70;10.47;;;7.10;82.90;;;;;;5082227;28;20214;-92
2022/01/28 14:21:26;;;;;;;15.03;10.80;;;7.00;84.60;;;;;;5080326;28;20191;-91
2022/01/28 14:23:52;;;;;;;13.87;9.40;;;7.00;85.90;;;;;;5084949;28;20202;-92